createdAt,value
2023-03-17T00:03:29.734Z,71.54
2023-03-17T00:08:34.270Z,70.82
2023-03-17T00:13:35.816Z,70.92
2023-03-17T00:18:37.673Z,71.66
2023-03-17T00:23:39.677Z,71.50
2023-03-17T00:28:41.278Z,72.60
2023-03-17T00:33:45.419Z,73.34
2023-03-17T00:38:47.462Z,73.19
2023-03-17T00:43:49.786Z,72.37
2023-03-17T00:48:51.299Z,71.70
2023-03-17T00:53:52.816Z,72.32
2023-03-17T00:58:54.531Z,73.58
2023-03-17T01:03:56.660Z,72.68
2023-03-17T01:08:58.303Z,73.65
2023-03-17T01:13:59.816Z,72.89
2023-03-17T01:19:01.496Z,73.49
2023-03-17T01:24:03.958Z,73.82
2023-03-17T01:29:07.913Z,72.88
2023-03-17T01:34:10.217Z,72.96
2023-03-17T01:39:13.337Z,74.63
2023-03-17T01:44:17.479Z,74.33
2023-03-17T01:49:38.496Z,73.98
2023-03-17T01:54:46.289Z,74.57
2023-03-17T01:59:53.571Z,73.90
2023-03-17T02:04:55.414Z,73.09
2023-03-17T02:09:58.259Z,72.84
2023-03-17T02:14:59.803Z,73.35
2023-03-17T02:20:17.219Z,73.61
2023-03-17T02:25:21.528Z,74.17
2023-03-17T02:30:24.121Z,73.74
2023-03-17T02:35:25.627Z,74.17
2023-03-17T02:40:27.517Z,74.60
2023-03-17T02:45:30.011Z,73.94
2023-03-17T02:50:32.216Z,75.69
2023-03-17T02:55:33.851Z,76.11
2023-03-17T03:00:35.439Z,75.73
2023-03-17T03:05:37.722Z,74.11
2023-03-17T03:10:39.487Z,74.79
2023-03-17T03:15:42.919Z,74.76
2023-03-17T03:20:47.306Z,76.05
2023-03-17T03:25:48.818Z,75.04
2023-03-17T03:30:50.541Z,74.96
2023-03-17T03:35:52.384Z,75.04
2023-03-17T03:40:54.041Z,76.20
2023-03-17T03:45:56.170Z,76.22
2023-03-17T03:51:00.042Z,76.59
2023-03-17T03:56:02.078Z,75.43
2023-03-17T04:01:09.962Z,75.05
2023-03-17T04:06:11.851Z,76.44
2023-03-17T04:11:13.599Z,78.00
2023-03-17T04:16:16.726Z,76.52
2023-03-17T04:21:19.307Z,76.18
2023-03-17T04:26:23.170Z,75.85
2023-03-17T04:31:24.789Z,74.78
2023-03-17T04:36:27.127Z,76.24
2023-03-17T04:41:28.666Z,79.75
2023-03-17T04:46:30.699Z,82.20
2023-03-17T04:51:32.355Z,83.88
2023-03-17T04:56:34.811Z,83.80
2023-03-17T05:01:39.096Z,80.48
2023-03-17T05:06:41.283Z,80.23
2023-03-17T05:11:42.874Z,80.66
2023-03-17T05:16:47.923Z,80.31
2023-03-17T05:21:49.955Z,78.19
2023-03-17T05:26:51.456Z,77.24
2023-03-17T05:31:53.017Z,78.31
2023-03-17T05:36:54.526Z,78.08
2023-03-17T05:41:57.198Z,79.27
2023-03-17T05:46:59.795Z,79.04
2023-03-17T05:52:01.564Z,80.38
2023-03-17T05:57:04.319Z,80.19
2023-03-17T06:02:05.886Z,78.34
2023-03-17T06:07:09.817Z,79.47
2023-03-17T06:12:11.406Z,79.64
2023-03-17T06:17:14.703Z,77.98
2023-03-17T06:22:16.232Z,78.75
2023-03-17T06:27:17.726Z,79.37
2023-03-17T06:32:21.073Z,78.24
2023-03-17T06:37:22.734Z,77.84
2023-03-17T06:42:24.244Z,77.22
2023-03-17T06:47:26.129Z,76.54
2023-03-17T06:52:28.097Z,76.12
2023-03-17T06:57:29.637Z,75.05
2023-03-17T07:02:31.144Z,75.22
2023-03-17T07:07:32.659Z,74.43
2023-03-17T07:12:34.419Z,72.19
2023-03-17T07:17:36.427Z,66.87
2023-03-17T07:22:38.041Z,62.59
2023-03-17T07:27:39.905Z,63.99
2023-03-17T07:32:42.087Z,64.28
2023-03-17T07:37:44.966Z,65.18
2023-03-17T07:42:46.524Z,63.98
2023-03-17T07:47:48.180Z,65.28
2023-03-17T07:52:49.697Z,65.93
2023-03-17T07:57:51.437Z,66.49
2023-03-17T08:03:06.967Z,66.64
2023-03-17T08:08:11.553Z,66.43
2023-03-17T08:13:13.082Z,65.98
2023-03-17T08:18:14.596Z,65.05
2023-03-17T08:23:16.950Z,64.33
2023-03-17T08:28:18.515Z,62.61
2023-03-17T08:33:20.895Z,61.75
2023-03-17T08:38:22.698Z,59.67
2023-03-17T08:43:24.273Z,59.16
2023-03-17T08:48:25.762Z,57.97
2023-03-17T08:53:27.826Z,57.44
2023-03-17T08:58:29.506Z,55.70
2023-03-17T09:03:32.769Z,56.02
2023-03-17T09:08:35.358Z,55.84
2023-03-17T09:13:39.143Z,53.54
2023-03-17T09:18:41.175Z,53.40
2023-03-17T09:23:43.491Z,52.62
2023-03-17T09:28:45.355Z,52.42
2023-03-17T09:33:47.802Z,51.24
2023-03-17T09:38:49.527Z,49.93
2023-03-17T09:44:19.443Z,48.20
2023-03-17T09:49:26.680Z,47.45
2023-03-17T09:54:38.214Z,47.10
2023-03-17T09:59:43.860Z,39.91
2023-03-17T10:04:46.256Z,37.89
2023-03-17T10:10:14.769Z,33.00
2023-03-17T10:15:51.919Z,30.19
2023-03-17T10:20:58.831Z,29.90
2023-03-17T10:26:08.229Z,26.84
2023-03-17T10:31:19.270Z,23.73
2023-03-17T10:36:40.381Z,22.41
2023-03-17T10:41:53.666Z,21.30
2023-03-17T10:46:57.179Z,19.40
2023-03-17T10:51:58.782Z,19.33
2023-03-17T10:57:06.305Z,19.55
2023-03-17T11:02:28.303Z,19.55
2023-03-17T11:07:39.957Z,18.89
2023-03-17T11:12:41.794Z,17.68
2023-03-17T11:18:01.867Z,19.27
2023-03-17T11:23:29.819Z,19.63
2023-03-17T11:28:39.129Z,19.73
2023-03-17T11:33:56.379Z,20.54
2023-03-17T11:39:17.522Z,20.88
2023-03-17T11:44:24.889Z,20.87
2023-03-17T11:49:36.379Z,21.58
2023-03-17T11:54:58.821Z,20.93
2023-03-17T12:00:05.497Z,20.16
2023-03-17T12:05:13.332Z,19.82
2023-03-17T12:10:31.264Z,19.08
2023-03-17T12:15:38.890Z,19.09
2023-03-17T12:20:59.864Z,18.82
2023-03-17T12:26:13.727Z,19.88
2023-03-17T12:31:22.898Z,20.95
2023-03-17T12:36:25.214Z,20.90
2023-03-17T12:41:49.113Z,22.71
2023-03-17T12:47:36.348Z,24.00
2023-03-17T12:52:40.907Z,25.88
2023-03-17T12:58:15.834Z,27.18
2023-03-17T13:03:28.056Z,27.94
2023-03-17T13:08:35.971Z,28.25
2023-03-17T13:13:45.100Z,28.14
2023-03-17T13:18:50.734Z,28.60
2023-03-17T13:24:13.983Z,29.43
2023-03-17T13:29:34.212Z,29.33
2023-03-17T13:34:46.615Z,30.31
2023-03-17T13:39:48.806Z,31.30
2023-03-17T13:45:32.712Z,32.01
2023-03-17T13:50:34.490Z,32.82
2023-03-17T13:55:38.691Z,33.15
2023-03-17T14:00:44.359Z,34.17
2023-03-17T14:05:50.921Z,34.54
2023-03-17T14:11:03.006Z,34.59
2023-03-17T14:16:27.875Z,35.58
2023-03-17T14:21:33.785Z,35.36
2023-03-17T14:26:35.787Z,35.04
2023-03-17T14:31:37.389Z,34.78
2023-03-17T14:36:38.937Z,34.96
2023-03-17T14:41:40.973Z,35.47
2023-03-17T14:46:42.849Z,35.59
2023-03-17T14:51:45.001Z,36.23
2023-03-17T14:56:51.080Z,36.68
2023-03-17T15:02:02.218Z,37.34
2023-03-17T15:07:06.730Z,38.21
2023-03-17T15:12:23.630Z,38.52
2023-03-17T15:17:32.894Z,39.14
2023-03-17T15:22:34.376Z,39.29
2023-03-17T15:27:35.992Z,39.13
2023-03-17T15:32:38.430Z,39.43
2023-03-17T15:37:41.270Z,39.62
2023-03-17T15:42:42.933Z,40.09
2023-03-17T15:47:47.144Z,39.60
2023-03-17T15:52:49.006Z,39.62
2023-03-17T15:57:55.182Z,39.16
2023-03-17T16:03:01.482Z,38.46
2023-03-17T16:08:03.509Z,38.00
2023-03-17T16:13:05.355Z,38.21
2023-03-17T16:18:13.871Z,38.81
2023-03-17T16:23:22.189Z,39.51
2023-03-17T16:28:30.750Z,40.24
2023-03-17T16:33:40.453Z,40.56
2023-03-17T16:38:42.835Z,41.26
2023-03-17T16:43:46.271Z,42.42
2023-03-17T16:48:49.684Z,43.32
2023-03-17T16:53:51.587Z,43.23
2023-03-17T16:58:53.091Z,44.13
2023-03-17T17:03:56.022Z,43.72
2023-03-17T17:08:57.531Z,44.25
2023-03-17T17:13:59.896Z,45.25
2023-03-17T17:19:03.690Z,45.98
2023-03-17T17:24:05.924Z,46.65
2023-03-17T17:29:07.550Z,46.83
2023-03-17T17:34:09.367Z,47.42
2023-03-17T17:39:14.590Z,47.59
2023-03-17T17:44:16.388Z,48.12
2023-03-17T17:49:18.073Z,48.04
2023-03-17T17:54:19.849Z,50.83
2023-03-17T17:59:22.288Z,49.66
2023-03-17T18:04:23.808Z,52.01
2023-03-17T18:09:25.335Z,50.24
2023-03-17T18:14:27.823Z,51.09
2023-03-17T18:19:29.457Z,51.33
2023-03-17T18:24:31.280Z,51.49
2023-03-17T18:29:32.828Z,52.66
2023-03-17T18:34:46.666Z,52.70
2023-03-17T18:40:05.668Z,52.73
2023-03-17T18:45:11.863Z,53.53
2023-03-17T18:50:16.505Z,54.47
2023-03-17T18:55:18.243Z,54.32
2023-03-17T19:00:20.397Z,53.65
2023-03-17T19:05:22.406Z,55.17
2023-03-17T19:10:23.948Z,55.75
2023-03-17T19:15:26.306Z,54.48
2023-03-17T19:20:28.149Z,55.50
2023-03-17T19:25:30.381Z,55.92
2023-03-17T19:30:32.342Z,55.84
2023-03-17T19:35:34.077Z,54.47
2023-03-17T19:40:37.089Z,55.12
2023-03-17T19:45:38.707Z,56.08
2023-03-17T19:50:40.856Z,57.16
2023-03-17T19:55:44.046Z,56.35
2023-03-17T20:00:45.609Z,56.16
2023-03-17T20:05:47.169Z,56.94
2023-03-17T20:10:55.267Z,57.38
2023-03-17T20:15:57.404Z,56.71
2023-03-17T20:21:00.500Z,56.31
2023-03-17T20:26:02.559Z,56.38
2023-03-17T20:31:04.949Z,56.99
2023-03-17T20:36:06.999Z,57.31
2023-03-17T20:41:11.461Z,57.71
2023-03-17T20:46:22.580Z,56.87
2023-03-17T20:51:26.118Z,56.78
2023-03-17T20:56:29.940Z,56.91
2023-03-17T21:01:36.636Z,57.36
2023-03-17T21:06:39.756Z,57.03
2023-03-17T21:11:43.218Z,57.16
2023-03-17T21:16:47.272Z,57.37
2023-03-17T21:21:49.416Z,57.22
2023-03-17T21:26:51.105Z,56.62
2023-03-17T21:31:52.778Z,56.34
2023-03-17T21:36:54.711Z,56.14
2023-03-17T21:41:57.093Z,55.69
2023-03-17T21:47:02.948Z,55.55
2023-03-17T21:52:05.375Z,55.52
2023-03-17T21:57:07.214Z,55.46
2023-03-17T22:02:11.644Z,55.80
2023-03-17T22:07:13.702Z,55.40
2023-03-17T22:12:15.708Z,55.65
2023-03-17T22:17:17.715Z,55.43
2023-03-17T22:22:23.644Z,55.99
2023-03-17T22:27:25.414Z,55.98
2023-03-17T22:32:26.920Z,56.08
2023-03-17T22:37:29.027Z,56.33
2023-03-17T22:42:31.213Z,56.48
2023-03-17T22:47:32.722Z,56.56
2023-03-17T22:52:35.081Z,56.56
2023-03-17T22:57:39.349Z,56.62
2023-03-17T23:02:41.261Z,56.58
2023-03-17T23:07:50.427Z,56.37
2023-03-17T23:12:53.548Z,56.33
2023-03-17T23:17:55.070Z,56.42
2023-03-17T23:22:57.190Z,56.58
2023-03-17T23:27:58.932Z,56.35
2023-03-17T23:33:01.368Z,56.59
2023-03-17T23:38:04.665Z,56.30
2023-03-17T23:43:06.716Z,56.32
2023-03-17T23:48:10.016Z,56.38
2023-03-17T23:53:11.683Z,55.95
2023-03-17T23:58:13.977Z,55.72
